Time;durP1;ratioP1;P1;durP2;ratioP2;P2;SDS_P1;SDS_P2;PMS_P1;PMS_P2;Temp;Humidity;BMP_temperature;BMP_pressure;BME280_temperature;BME280_humidity;BME280_pressure;Samples;Min_cycle;Max_cycle;Signal;HPM_P1;HPM_P2
2022/06/01 00:01:06;;;;;;;13.00;11.90;;;;;;;;;;5059661;28;20444;-69
2022/06/01 00:03:34;;;;;;;13.63;12.23;;;;;;;;;;5059102;28;20529;-69
2022/06/01 00:06:01;;;;;;;13.43;12.13;;;;;;;;;;5059412;28;20557;-69
2022/06/01 00:08:28;;;;;;;12.43;11.30;;;;;;;;;;5058642;28;20433;-69
2022/06/01 00:10:57;;;;;;;11.77;10.77;;;;;;;;;;5055086;28;20540;-69
2022/06/01 00:13:24;;;;;;;13.13;11.83;;;;;;;;;;5055610;28;20445;-69
2022/06/01 00:15:51;;;;;;;13.90;12.63;;;;;;;;;;5055609;28;20441;-69
2022/06/01 00:18:19;;;;;;;14.53;12.50;;;;;;;;;;5055523;28;20452;-68
2022/06/01 00:20:46;;;;;;;13.33;12.03;;;;;;;;;;5055787;28;20445;-69
2022/06/01 00:23:14;;;;;;;14.87;11.27;;;;;;;;;;5055716;28;20441;-69
2022/06/01 00:25:42;;;;;;;12.87;11.57;;;;;;;;;;5055818;28;20445;-69
2022/06/01 00:28:10;;;;;;;12.50;11.40;;;;;;;;;;5055681;28;20488;-69
2022/06/01 00:30:38;;;;;;;12.87;11.57;;;;;;;;;;5055699;28;20444;-69
2022/06/01 00:33:05;;;;;;;13.40;12.27;;;;;;;;;;5055303;28;20441;-69
2022/06/01 00:35:33;;;;;;;12.73;11.63;;;;;;;;;;5055001;28;20475;-68
2022/06/01 00:38:00;;;;;;;12.77;11.67;;;;;;;;;;5055015;28;20954;-68
2022/06/01 00:40:28;;;;;;;12.80;11.60;;;;;;;;;;5055963;28;20766;-68
2022/06/01 00:42:57;;;;;;;13.77;12.47;;;;;;;;;;5054980;28;20445;-68
2022/06/01 00:45:28;;;;;;;13.43;12.13;;;;;;;;;;5055895;28;20802;-69
2022/06/01 00:47:55;;;;;;;13.97;12.77;;;;;;;;;;5055038;28;20440;-68
2022/06/01 00:50:25;;;;;;;14.80;13.50;;;;;;;;;;5055764;28;20452;-69
2022/06/01 00:52:55;;;;;;;13.83;12.63;;;;;;;;;;5055708;28;20451;-69
2022/06/01 00:55:24;;;;;;;14.63;13.40;;;;;;;;;;5055326;28;20441;-68
2022/06/01 00:57:52;;;;;;;14.47;13.00;;;;;;;;;;5055058;28;20469;-68
2022/06/01 01:00:22;;;;;;;13.90;12.60;;;;;;;;;;5054826;28;20445;-69
2022/06/01 01:02:51;;;;;;;13.57;12.37;;;;;;;;;;5055435;28;20441;-68
2022/06/01 01:05:19;;;;;;;14.03;12.63;;;;;;;;;;5054976;28;20454;-68
2022/06/01 01:07:46;;;;;;;13.80;12.50;;;;;;;;;;5055296;28;20449;-68
2022/06/01 01:10:15;;;;;;;14.30;12.87;;;;;;;;;;5054658;28;20477;-68
2022/06/01 01:12:59;;;;;;;14.17;12.87;;;;;;;;;;5054796;28;20442;-68
2022/06/01 01:15:28;;;;;;;13.67;12.50;;;;;;;;;;5055076;28;20453;-69
2022/06/01 01:17:56;;;;;;;13.90;12.65;;;;;;;;;;5054880;28;20480;-68
2022/06/01 01:20:25;;;;;;;14.87;13.43;;;;;;;;;;5054584;28;20202;-68
2022/06/01 01:22:56;;;;;;;14.40;13.10;;;;;;;;;;5054617;28;20516;-68
2022/06/01 01:25:26;;;;;;;13.63;12.43;;;;;;;;;;5054972;28;20902;-68
2022/06/01 01:27:56;;;;;;;15.07;13.67;;;;;;;;;;5054513;28;20441;-68
2022/06/01 01:30:27;;;;;;;15.90;14.30;;;;;;;;;;5054662;28;20488;-68
2022/06/01 01:32:54;;;;;;;16.13;14.43;;;;;;;;;;5054406;28;20437;-68
2022/06/01 01:35:22;;;;;;;15.70;14.40;;;;;;;;;;5054262;28;20453;-68
2022/06/01 01:37:50;;;;;;;16.07;14.70;;;;;;;;;;5054354;28;20472;-68
2022/06/01 01:40:17;;;;;;;15.20;13.65;;;;;;;;;;5054321;28;20442;-69
2022/06/01 01:42:47;;;;;;;16.90;15.00;;;;;;;;;;5054044;28;20199;-69
2022/06/01 01:45:17;;;;;;;16.30;14.53;;;;;;;;;;5054243;28;20441;-69
2022/06/01 01:47:44;;;;;;;16.60;15.13;;;;;;;;;;5053935;28;20485;-69
2022/06/01 01:50:12;;;;;;;15.10;13.77;;;;;;;;;;5054096;28;20789;-68
2022/06/01 01:52:40;;;;;;;17.40;15.70;;;;;;;;;;5054142;28;20452;-69
2022/06/01 01:55:09;;;;;;;15.90;14.50;;;;;;;;;;5053763;28;20516;-68
2022/06/01 01:57:41;;;;;;;20.70;16.30;;;;;;;;;;5053694;28;20473;-68
2022/06/01 02:00:14;;;;;;;17.70;16.00;;;;;;;;;;5053634;28;20517;-68
2022/06/01 02:02:45;;;;;;;19.60;16.67;;;;;;;;;;5054253;28;20473;-68
2022/06/01 02:08:05;;;;;;;17.30;15.70;;;;;;;;;;5053724;28;20830;-69
2022/06/01 02:13:18;;;;;;;20.20;18.10;;;;;;;;;;5053526;28;20920;-67
2022/06/01 02:15:49;;;;;;;19.27;17.40;;;;;;;;;;5054211;28;20557;-69
2022/06/01 02:18:19;;;;;;;18.97;17.17;;;;;;;;;;5054193;28;20475;-68
2022/06/01 02:20:49;;;;;;;19.43;17.63;;;;;;;;;;5053373;28;20468;-68
2022/06/01 02:23:17;;;;;;;21.00;18.83;;;;;;;;;;5053323;28;20533;-68
2022/06/01 02:25:47;;;;;;;19.80;17.97;;;;;;;;;;5053505;28;20492;-68
2022/06/01 02:28:14;;;;;;;21.00;18.10;;;;;;;;;;5053179;28;20533;-68
2022/06/01 02:30:42;;;;;;;21.23;19.23;;;;;;;;;;5053069;28;20441;-68
2022/06/01 02:33:13;;;;;;;21.37;19.37;;;;;;;;;;5052921;28;20441;-68
2022/06/01 02:35:42;;;;;;;22.67;20.33;;;;;;;;;;5052991;28;20484;-69
2022/06/01 02:38:15;;;;;;;21.37;19.27;;;;;;;;;;5053649;28;20967;-69
2022/06/01 02:40:43;;;;;;;20.57;18.23;;;;;;;;;;5053409;28;20429;-69
2022/06/01 02:43:10;;;;;;;20.53;18.30;;;;;;;;;;5053620;28;20450;-68
2022/06/01 02:45:39;;;;;;;21.33;19.43;;;;;;;;;;5052944;28;20523;-68
2022/06/01 02:48:07;;;;;;;23.57;20.40;;;;;;;;;;5053777;28;20441;-68
2022/06/01 02:50:36;;;;;;;22.33;20.20;;;;;;;;;;5052909;28;20437;-69
2022/06/01 02:53:04;;;;;;;21.70;19.60;;;;;;;;;;5053309;28;20452;-68
2022/06/01 02:55:33;;;;;;;24.27;21.73;;;;;;;;;;5052833;28;20962;-68
2022/06/01 02:58:00;;;;;;;22.80;20.40;;;;;;;;;;5052808;28;20483;-68
2022/06/01 03:00:29;;;;;;;23.20;20.87;;;;;;;;;;5053100;28;20437;-68
2022/06/01 03:02:57;;;;;;;22.37;20.27;;;;;;;;;;5052908;28;20460;-68
2022/06/01 03:05:26;;;;;;;23.50;21.20;;;;;;;;;;5052583;28;20437;-68
2022/06/01 03:07:54;;;;;;;23.70;21.40;;;;;;;;;;5052693;28;20946;-68
2022/06/01 03:10:21;;;;;;;23.87;21.27;;;;;;;;;;5052538;28;20540;-68
2022/06/01 03:12:49;;;;;;;25.60;22.90;;;;;;;;;;5052770;28;20445;-68
2022/06/01 03:15:17;;;;;;;27.20;23.97;;;;;;;;;;5052641;28;20437;-67
2022/06/01 03:17:44;;;;;;;26.40;23.80;;;;;;;;;;5052630;28;20469;-68
2022/06/01 03:20:13;;;;;;;26.20;23.63;;;;;;;;;;5052517;28;20943;-67
2022/06/01 03:22:41;;;;;;;26.37;23.57;;;;;;;;;;5052995;28;20453;-68
2022/06/01 03:25:12;;;;;;;26.93;24.33;;;;;;;;;;5053159;28;20511;-68
2022/06/01 03:27:39;;;;;;;29.13;26.20;;;;;;;;;;5053321;28;20433;-68
2022/06/01 03:30:08;;;;;;;27.20;24.38;;;;;;;;;;5052693;28;21010;-67
2022/06/01 03:32:35;;;;;;;29.67;26.57;;;;;;;;;;5053108;28;20205;-68
2022/06/01 03:35:03;;;;;;;28.90;25.85;;;;;;;;;;5052331;28;20561;-67
2022/06/01 03:37:31;;;;;;;29.47;26.47;;;;;;;;;;5052971;28;20702;-68
2022/06/01 03:39:58;;;;;;;28.07;25.00;;;;;;;;;;5053111;28;20477;-67
2022/06/01 03:42:27;;;;;;;31.80;27.80;;;;;;;;;;5052727;28;20437;-68
2022/06/01 03:47:39;;;;;;;32.40;28.90;;;;;;;;;;5056692;28;20178;-67
2022/06/01 03:50:06;;;;;;;33.05;29.52;;;;;;;;;;5056466;28;20513;-68
2022/06/01 03:52:34;;;;;;;32.57;29.07;;;;;;;;;;5056549;28;20226;-68
2022/06/01 03:55:01;;;;;;;35.67;29.38;;;;;;;;;;5056157;28;20445;-67
2022/06/01 03:57:29;;;;;;;31.00;27.70;;;;;;;;;;5056420;28;20226;-67
2022/06/01 03:59:56;;;;;;;37.70;28.93;;;;;;;;;;5056171;28;20463;-67
2022/06/01 04:02:24;;;;;;;34.40;29.75;;;;;;;;;;5054877;28;20806;-66
2022/06/01 04:04:51;;;;;;;32.00;28.63;;;;;;;;;;5055365;28;20201;-66
2022/06/01 04:07:18;;;;;;;34.10;29.90;;;;;;;;;;5056211;28;20911;-68
2022/06/01 04:09:45;;;;;;;31.07;27.57;;;;;;;;;;5055963;28;20451;-67
2022/06/01 04:12:12;;;;;;;34.10;28.60;;;;;;;;;;5056100;28;20448;-67
2022/06/01 04:14:41;;;;;;;32.85;29.30;;;;;;;;;;5056034;28;20445;-67
2022/06/01 04:17:08;;;;;;;36.92;30.80;;;;;;;;;;5055844;28;20191;-67
2022/06/01 04:19:35;;;;;;;35.07;28.70;;;;;;;;;;5055873;28;20195;-68
2022/06/01 04:22:03;;;;;;;42.23;34.57;;;;;;;;;;5055684;28;20437;-67
2022/06/01 04:24:33;;;;;;;34.63;30.57;;;;;;;;;;5055797;28;20441;-67
2022/06/01 04:27:00;;;;;;;35.17;28.90;;;;;;;;;;5055800;28;20642;-67
2022/06/01 04:29:28;;;;;;;35.53;29.70;;;;;;;;;;5055597;28;20806;-68
2022/06/01 04:32:01;;;;;;;38.00;30.97;;;;;;;;;;5054832;28;20194;-67
2022/06/01 04:34:28;;;;;;;35.67;30.10;;;;;;;;;;5055336;28;20441;-67
2022/06/01 04:36:55;;;;;;;35.90;30.83;;;;;;;;;;5054648;28;20533;-67
2022/06/01 04:39:24;;;;;;;33.93;29.70;;;;;;;;;;5055342;28;20554;-67
2022/06/01 04:41:51;;;;;;;35.78;30.67;;;;;;;;;;5055403;28;20520;-67
2022/06/01 04:44:19;;;;;;;34.78;28.05;;;;;;;;;;5054912;28;20206;-68
2022/06/01 04:46:46;;;;;;;39.30;31.37;;;;;;;;;;5055423;28;20603;-68
2022/06/01 04:49:15;;;;;;;35.80;29.50;;;;;;;;;;5055337;28;20521;-67
2022/06/01 04:51:42;;;;;;;31.70;28.27;;;;;;;;;;5055078;28;20450;-67
2022/06/01 04:54:10;;;;;;;31.17;27.90;;;;;;;;;;5055309;28;20449;-68
2022/06/01 04:56:37;;;;;;;35.30;29.57;;;;;;;;;;5054604;28;20437;-67
2022/06/01 04:59:04;;;;;;;32.47;25.83;;;;;;;;;;5055219;28;21046;-67
2022/06/01 05:01:32;;;;;;;26.13;23.63;;;;;;;;;;5055061;28;20798;-65
2022/06/01 05:03:59;;;;;;;27.00;24.13;;;;;;;;;;5054885;28;20444;-67
2022/06/01 05:06:27;;;;;;;24.30;21.87;;;;;;;;;;5054597;28;20517;-68
2022/06/01 05:08:55;;;;;;;27.10;24.20;;;;;;;;;;5055026;28;20472;-67
2022/06/01 05:11:22;;;;;;;25.10;22.67;;;;;;;;;;5054444;28;20525;-67
2022/06/01 05:13:49;;;;;;;27.23;24.13;;;;;;;;;;5054120;28;20813;-67
2022/06/01 05:16:16;;;;;;;28.33;25.33;;;;;;;;;;5052622;28;20443;-67
2022/06/01 05:18:43;;;;;;;29.90;25.37;;;;;;;;;;5053992;28;20480;-73
2022/06/01 05:21:11;;;;;;;27.13;24.30;;;;;;;;;;5054543;28;20446;-68
2022/06/01 05:23:39;;;;;;;29.33;26.20;;;;;;;;;;5054187;28;20938;-67
2022/06/01 05:26:07;;;;;;;30.73;26.80;;;;;;;;;;5054659;28;20446;-69
2022/06/01 05:28:35;;;;;;;30.03;26.33;;;;;;;;;;5054565;28;20447;-67
2022/06/01 05:31:03;;;;;;;30.37;25.90;;;;;;;;;;5053830;28;20945;-67
2022/06/01 05:33:31;;;;;;;29.73;25.73;;;;;;;;;;5054619;28;20434;-67
2022/06/01 05:35:58;;;;;;;29.33;26.43;;;;;;;;;;5054684;28;20523;-67
2022/06/01 05:38:25;;;;;;;28.67;25.70;;;;;;;;;;5054131;28;20492;-67
2022/06/01 05:40:54;;;;;;;30.20;27.10;;;;;;;;;;5054352;28;20442;-68
2022/06/01 05:43:21;;;;;;;30.13;27.23;;;;;;;;;;5054094;28;20536;-68
2022/06/01 05:45:48;;;;;;;30.40;26.87;;;;;;;;;;5054182;28;20434;-68
2022/06/01 05:48:17;;;;;;;31.50;28.20;;;;;;;;;;5054150;28;20445;-67
2022/06/01 05:50:44;;;;;;;29.03;25.87;;;;;;;;;;5054172;28;20532;-67
2022/06/01 05:53:12;;;;;;;28.83;25.53;;;;;;;;;;5054066;28;20442;-67
2022/06/01 05:55:39;;;;;;;26.93;24.17;;;;;;;;;;5054045;28;20511;-67
2022/06/01 05:58:16;;;;;;;28.70;25.67;;;;;;;;;;5053926;28;20797;-68
2022/06/01 06:00:44;;;;;;;24.90;22.40;;;;;;;;;;5054110;28;20460;-67
2022/06/01 06:03:11;;;;;;;24.13;21.47;;;;;;;;;;5053778;28;20469;-67
2022/06/01 06:08:23;;;;;;;27.50;22.53;;;;;;;;;;5052859;28;20817;-67
2022/06/01 06:10:51;;;;;;;24.27;21.77;;;;;;;;;;5053824;28;20442;-67
2022/06/01 06:13:19;;;;;;;22.67;20.27;;;;;;;;;;5053811;28;20820;-67
2022/06/01 06:15:46;;;;;;;21.40;19.20;;;;;;;;;;5053474;28;20974;-67
2022/06/01 06:18:14;;;;;;;19.43;17.43;;;;;;;;;;5053690;28;20562;-67
2022/06/01 06:20:42;;;;;;;26.83;20.63;;;;;;;;;;5053257;28;20449;-67
2022/06/01 06:23:09;;;;;;;21.73;19.60;;;;;;;;;;5053514;28;20524;-67
2022/06/01 06:25:36;;;;;;;19.97;17.97;;;;;;;;;;5053774;28;20446;-67
2022/06/01 06:28:04;;;;;;;21.93;19.33;;;;;;;;;;5053151;28;20437;-67
2022/06/01 06:30:33;;;;;;;22.20;19.73;;;;;;;;;;5053614;28;20521;-67
2022/06/01 06:33:00;;;;;;;26.20;21.40;;;;;;;;;;5053375;28;20438;-67
2022/06/01 06:35:27;;;;;;;23.80;21.40;;;;;;;;;;5052899;28;20967;-67
2022/06/01 06:37:54;;;;;;;21.83;19.53;;;;;;;;;;5053541;28;20438;-67
2022/06/01 06:40:22;;;;;;;23.07;19.97;;;;;;;;;;5053739;28;20529;-67
2022/06/01 06:42:49;;;;;;;20.37;18.27;;;;;;;;;;5053274;28;20442;-67
2022/06/01 06:45:16;;;;;;;20.93;18.83;;;;;;;;;;5053279;28;20516;-68
2022/06/01 06:47:45;;;;;;;22.13;19.43;;;;;;;;;;5053225;28;20437;-67
2022/06/01 06:50:13;;;;;;;22.90;20.47;;;;;;;;;;5052956;28;20539;-68
2022/06/01 06:52:40;;;;;;;26.80;22.03;;;;;;;;;;5052878;28;20438;-67
2022/06/01 06:55:08;;;;;;;23.50;21.10;;;;;;;;;;5052887;28;20946;-67
2022/06/01 06:57:35;;;;;;;21.90;19.60;;;;;;;;;;5052749;28;20442;-67
2022/06/01 07:00:05;;;;;;;22.73;20.30;;;;;;;;;;5053237;28;20552;-67
2022/06/01 07:02:32;;;;;;;23.20;20.80;;;;;;;;;;5053217;28;20446;-67
2022/06/01 07:05:01;;;;;;;23.23;19.03;;;;;;;;;;5052962;28;20447;-67
2022/06/01 07:07:28;;;;;;;22.73;20.30;;;;;;;;;;5052700;28;20443;-67
2022/06/01 07:09:55;;;;;;;20.67;18.47;;;;;;;;;;5053070;28;20473;-68
2022/06/01 07:12:22;;;;;;;21.90;19.80;;;;;;;;;;5052960;28;20447;-67
2022/06/01 07:14:49;;;;;;;21.50;19.27;;;;;;;;;;5053132;28;20443;-67
2022/06/01 07:17:17;;;;;;;22.27;20.03;;;;;;;;;;5052729;28;20941;-68
2022/06/01 07:19:44;;;;;;;21.20;19.20;;;;;;;;;;5055322;28;20469;-68
2022/06/01 07:22:13;;;;;;;21.57;19.23;;;;;;;;;;5056937;28;20512;-68
2022/06/01 07:24:40;;;;;;;21.13;18.93;;;;;;;;;;5056597;28;20440;-68
2022/06/01 07:27:07;;;;;;;20.47;18.47;;;;;;;;;;5056638;28;20443;-68
2022/06/01 07:29:34;;;;;;;20.73;18.73;;;;;;;;;;5056954;28;20473;-69
2022/06/01 07:32:02;;;;;;;20.57;17.23;;;;;;;;;;5056351;28;20533;-69
2022/06/01 07:34:29;;;;;;;22.00;19.00;;;;;;;;;;5056528;28;20439;-68
2022/06/01 07:43:05;;;;;;;19.87;17.73;;;;;;;;;;5056447;28;20470;-68
2022/06/01 07:45:14;;;;;;;21.43;17.60;;;;;;;;;;5056596;28;20476;-68
2022/06/01 07:47:42;;;;;;;16.50;14.77;;;;;;;;;;5056190;28;20446;-68
2022/06/01 07:50:09;;;;;;;16.73;15.10;;;;;;;;;;5056154;28;20956;-68
2022/06/01 07:52:37;;;;;;;18.63;16.73;;;;;;;;;;5056179;28;20500;-68
2022/06/01 07:55:06;;;;;;;15.17;13.07;;;;;;;;;;5056092;28;20448;-68
2022/06/01 07:57:33;;;;;;;15.00;12.30;;;;;;;;;;5056596;28;20908;-68
2022/06/01 08:00:01;;;;;;;14.60;12.90;;;;;;;;;;5056218;28;20469;-68
2022/06/01 08:02:28;;;;;;;13.13;11.37;;;;;;;;;;5056280;28;20447;-68
2022/06/01 08:04:55;;;;;;;10.93;9.93;;;;;;;;;;5056290;28;20450;-67
2022/06/01 08:07:23;;;;;;;11.63;8.53;;;;;;;;;;5055919;28;20919;-67
2022/06/01 08:09:50;;;;;;;11.83;9.33;;;;;;;;;;5055761;28;20446;-68
2022/06/01 08:15:04;;;;;;;8.77;7.87;;;;;;;;;;5055803;28;20905;-69
2022/06/01 08:17:31;;;;;;;9.60;8.00;;;;;;;;;;5055664;28;20447;-68
2022/06/01 08:19:58;;;;;;;8.50;7.70;;;;;;;;;;5055624;28;20792;-67
2022/06/01 08:22:25;;;;;;;8.67;7.97;;;;;;;;;;5056373;28;20463;-68
2022/06/01 08:24:52;;;;;;;7.67;6.87;;;;;;;;;;5055547;28;20448;-68
2022/06/01 08:27:21;;;;;;;7.77;7.00;;;;;;;;;;5056251;28;20436;-67
2022/06/01 08:29:48;;;;;;;6.60;5.90;;;;;;;;;;5055101;28;20544;-67
2022/06/01 08:32:16;;;;;;;9.17;6.10;;;;;;;;;;5055238;28;20482;-68
2022/06/01 08:34:43;;;;;;;7.13;6.53;;;;;;;;;;5055682;28;20442;-68
2022/06/01 08:37:10;;;;;;;7.73;6.73;;;;;;;;;;5055370;28;20473;-68
2022/06/01 08:39:37;;;;;;;10.10;6.10;;;;;;;;;;5055118;28;20486;-68
2022/06/01 08:42:06;;;;;;;7.10;6.50;;;;;;;;;;5055767;28;20872;-68
2022/06/01 08:44:35;;;;;;;6.40;5.80;;;;;;;;;;5054963;28;20442;-68
2022/06/01 08:47:06;;;;;;;6.13;5.53;;;;;;;;;;5055473;28;20446;-69
2022/06/01 08:49:35;;;;;;;7.57;6.83;;;;;;;;;;5055087;28;20916;-67
2022/06/01 08:52:02;;;;;;;6.90;6.40;;;;;;;;;;5054911;28;20445;-66
2022/06/01 08:54:29;;;;;;;8.20;6.63;;;;;;;;;;5055135;28;20920;-67
2022/06/01 08:57:01;;;;;;;5.50;5.00;;;;;;;;;;5055131;28;20443;-68
2022/06/01 08:59:33;;;;;;;4.37;4.07;;;;;;;;;;5054941;28;20488;-67
2022/06/01 09:02:06;;;;;;;5.43;4.93;;;;;;;;;;5054930;28;20426;-69
2022/06/01 09:04:37;;;;;;;4.30;4.00;;;;;;;;;;5054896;28;20985;-68
2022/06/01 09:07:12;;;;;;;6.03;5.20;;;;;;;;;;5054782;28;20426;-67
2022/06/01 09:09:45;;;;;;;4.90;4.50;;;;;;;;;;5054940;28;20787;-68
2022/06/01 09:12:12;;;;;;;7.70;5.33;;;;;;;;;;5055459;28;20433;-67
2022/06/01 09:14:41;;;;;;;6.20;5.67;;;;;;;;;;5054683;28;20993;-68
2022/06/01 09:17:10;;;;;;;6.13;5.60;;;;;;;;;;5054546;28;20470;-68
2022/06/01 09:25:05;;;;;;;7.60;5.10;;;;;;;;;;5054673;28;20523;-67
2022/06/01 09:27:38;;;;;;;5.50;5.00;;;;;;;;;;5054677;28;20443;-69
2022/06/01 09:30:19;;;;;;;4.90;4.50;;;;;;;;;;5054557;28;20508;-68
2022/06/01 09:33:01;;;;;;;6.00;5.50;;;;;;;;;;5054520;28;20433;-68
2022/06/01 09:35:29;;;;;;;6.00;5.40;;;;;;;;;;5054135;28;20544;-67
2022/06/01 09:37:57;;;;;;;7.17;6.57;;;;;;;;;;5054193;28;20425;-68
2022/06/01 09:40:25;;;;;;;6.40;5.90;;;;;;;;;;5054307;28;20478;-67
2022/06/01 09:42:53;;;;;;;6.03;4.10;;;;;;;;;;5053962;28;20449;-67
2022/06/01 09:45:24;;;;;;;5.10;4.60;;;;;;;;;;5054216;28;20443;-67
2022/06/01 09:47:51;;;;;;;6.53;5.93;;;;;;;;;;5054032;28;20527;-67
2022/06/01 09:50:25;;;;;;;6.30;5.80;;;;;;;;;;5054126;28;20438;-67
2022/06/01 09:52:53;;;;;;;11.63;6.07;;;;;;;;;;5054116;28;21029;-67
2022/06/01 09:55:23;;;;;;;6.37;5.77;;;;;;;;;;5054076;28;20813;-69
2022/06/01 09:58:05;;;;;;;6.03;4.80;;;;;;;;;;5054265;28;20796;-69
2022/06/01 10:06:12;;;;;;;5.90;5.40;;;;;;;;;;5054258;28;20429;-68
2022/06/01 10:08:43;;;;;;;5.97;4.97;;;;;;;;;;5054075;28;20434;-69
2022/06/01 10:11:28;;;;;;;4.87;4.47;;;;;;;;;;5053538;28;20437;-68
2022/06/01 10:13:55;;;;;;;5.47;4.97;;;;;;;;;;5054263;28;20422;-68
2022/06/01 10:16:31;;;;;;;5.47;4.70;;;;;;;;;;5053699;28;20446;-69
2022/06/01 10:19:01;;;;;;;6.23;4.10;;;;;;;;;;5053556;28;20939;-68
2022/06/01 10:21:32;;;;;;;4.93;4.50;;;;;;;;;;5053602;28;20442;-68
2022/06/01 10:24:02;;;;;;;5.23;4.23;;;;;;;;;;5053874;28;20435;-69
2022/06/01 10:26:32;;;;;;;7.13;5.23;;;;;;;;;;5053517;28;20438;-68
2022/06/01 10:29:02;;;;;;;4.80;4.50;;;;;;;;;;5053260;28;20438;-67
2022/06/01 10:31:31;;;;;;;4.60;4.20;;;;;;;;;;5053357;28;20796;-67
2022/06/01 10:34:03;;;;;;;4.53;4.13;;;;;;;;;;5053338;28;20445;-68
2022/06/01 10:36:39;;;;;;;5.00;4.60;;;;;;;;;;5053185;28;20507;-67
2022/06/01 10:39:09;;;;;;;4.60;4.30;;;;;;;;;;5053626;28;20441;-68
2022/06/01 10:41:39;;;;;;;4.80;4.40;;;;;;;;;;5052955;28;20457;-68
2022/06/01 10:44:09;;;;;;;7.00;5.13;;;;;;;;;;5053305;28;20453;-69
2022/06/01 10:46:40;;;;;;;5.77;5.10;;;;;;;;;;5052847;28;20981;-68
2022/06/01 10:49:16;;;;;;;5.50;5.10;;;;;;;;;;5053620;28;20461;-68
2022/06/01 10:51:45;;;;;;;5.57;5.10;;;;;;;;;;5052782;28;20979;-68
2022/06/01 10:54:19;;;;;;;4.13;3.83;;;;;;;;;;5052100;28;20530;-68
2022/06/01 10:56:46;;;;;;;4.30;3.90;;;;;;;;;;5052651;28;20450;-67
2022/06/01 10:59:16;;;;;;;3.30;3.00;;;;;;;;;;5052858;28;20439;-69
2022/06/01 11:01:56;;;;;;;5.77;5.07;;;;;;;;;;5052762;28;20493;-68
2022/06/01 11:04:32;;;;;;;3.63;3.33;;;;;;;;;;5052950;28;20441;-68
2022/06/01 11:07:22;;;;;;;4.17;3.80;;;;;;;;;;5052642;28;20433;-68
2022/06/01 11:09:56;;;;;;;4.50;4.13;;;;;;;;;;5053314;28;20443;-67
2022/06/01 11:12:30;;;;;;;5.60;3.90;;;;;;;;;;5052469;28;20432;-68
2022/06/01 11:15:07;;;;;;;4.93;4.50;;;;;;;;;;5053007;28;20427;-68
2022/06/01 11:17:36;;;;;;;4.80;4.30;;;;;;;;;;5052839;28;20505;-67
2022/06/01 11:20:14;;;;;;;5.70;5.30;;;;;;;;;;5052708;28;20571;-67
2022/06/01 11:22:49;;;;;;;5.30;4.80;;;;;;;;;;5052452;28;20430;-67
2022/06/01 11:25:22;;;;;;;4.60;4.30;;;;;;;;;;5052501;28;20901;-67
2022/06/01 11:28:08;;;;;;;4.17;3.77;;;;;;;;;;5052859;28;20426;-67
2022/06/01 11:30:40;;;;;;;4.33;3.93;;;;;;;;;;5053222;28;20445;-68
2022/06/01 11:33:15;;;;;;;5.27;4.87;;;;;;;;;;5052293;28;20428;-69
2022/06/01 11:35:50;;;;;;;8.13;5.00;;;;;;;;;;5052589;28;20540;-70
2022/06/01 11:38:21;;;;;;;6.10;4.90;;;;;;;;;;5052685;28;20826;-67
2022/06/01 11:40:50;;;;;;;3.60;3.30;;;;;;;;;;5052927;28;20467;-67
2022/06/01 11:43:24;;;;;;;3.60;3.30;;;;;;;;;;5052461;28;20472;-68
2022/06/01 11:45:54;;;;;;;5.97;3.13;;;;;;;;;;5052968;28;20440;-69
2022/06/01 11:48:24;;;;;;;3.50;2.50;;;;;;;;;;5052486;28;21003;-68
2022/06/01 11:50:57;;;;;;;2.40;2.20;;;;;;;;;;5052474;28;20425;-68
2022/06/01 11:53:35;;;;;;;2.33;2.20;;;;;;;;;;5051899;28;20470;-67
2022/06/01 11:56:16;;;;;;;2.83;2.50;;;;;;;;;;5051467;28;20445;-68
2022/06/01 11:58:47;;;;;;;1.90;1.80;;;;;;;;;;5052371;28;20496;-68
2022/06/01 12:01:15;;;;;;;2.20;2.10;;;;;;;;;;5053121;28;20520;-68
2022/06/01 12:03:54;;;;;;;1.80;1.70;;;;;;;;;;5052314;28;20456;-67
2022/06/01 12:06:42;;;;;;;2.60;2.40;;;;;;;;;;5055089;28;20536;-66
2022/06/01 12:09:16;;;;;;;2.90;2.70;;;;;;;;;;5051439;28;20481;-68
2022/06/01 12:11:46;;;;;;;2.20;2.07;;;;;;;;;;5056151;28;20486;-67
2022/06/01 12:14:29;;;;;;;2.77;2.50;;;;;;;;;;5056005;28;20440;-68
2022/06/01 12:17:15;;;;;;;2.27;2.17;;;;;;;;;;5056381;28;20449;-67
2022/06/01 12:19:45;;;;;;;2.90;2.70;;;;;;;;;;5055525;28;20935;-67
2022/06/01 12:28:30;;;;;;;2.67;2.47;;;;;;;;;;5055858;28;20470;-68
2022/06/01 12:30:52;;;;;;;3.07;2.87;;;;;;;;;;5055541;28;20933;-68
2022/06/01 12:33:19;;;;;;;3.80;3.50;;;;;;;;;;5055285;28;20930;-66
2022/06/01 12:35:48;;;;;;;3.53;3.33;;;;;;;;;;5055548;28;20478;-67
2022/06/01 12:38:22;;;;;;;3.43;3.23;;;;;;;;;;5055692;28;20427;-66
2022/06/01 12:41:06;;;;;;;7.00;3.67;;;;;;;;;;5055939;28;20467;-67
2022/06/01 12:43:36;;;;;;;4.00;3.63;;;;;;;;;;5045306;28;20443;-67
2022/06/01 12:46:05;;;;;;;5.60;5.20;;;;;;;;;;5055535;28;20444;-67
2022/06/01 12:48:32;;;;;;;5.50;5.07;;;;;;;;;;5055114;28;20537;-67
2022/06/01 12:51:02;;;;;;;5.43;5.03;;;;;;;;;;5055637;28;20531;-67
2022/06/01 12:53:42;;;;;;;4.37;4.07;;;;;;;;;;5055123;28;20445;-66
2022/06/01 12:56:10;;;;;;;4.67;4.27;;;;;;;;;;5055347;28;20779;-66
2022/06/01 12:58:40;;;;;;;3.73;3.43;;;;;;;;;;5054815;28;20454;-66
2022/06/01 13:01:08;;;;;;;4.00;3.30;;;;;;;;;;5055222;28;20533;-66
2022/06/01 13:03:35;;;;;;;3.40;3.10;;;;;;;;;;5054940;28;20809;-67
2022/06/01 13:06:05;;;;;;;3.90;3.60;;;;;;;;;;5054657;28;20470;-67
2022/06/01 13:08:37;;;;;;;5.13;4.37;;;;;;;;;;5055180;28;20439;-69
2022/06/01 13:11:17;;;;;;;9.87;4.10;;;;;;;;;;5055040;28;20442;-67
2022/06/01 13:13:46;;;;;;;6.23;5.10;;;;;;;;;;5054763;28;20911;-68
2022/06/01 13:16:14;;;;;;;4.20;3.90;;;;;;;;;;5055119;28;20445;-67
2022/06/01 13:18:42;;;;;;;5.30;4.80;;;;;;;;;;5054828;28;20442;-68
2022/06/01 13:21:15;;;;;;;6.40;5.20;;;;;;;;;;5054641;28;20484;-67
2022/06/01 13:23:54;;;;;;;5.30;4.43;;;;;;;;;;5054753;28;20467;-67
2022/06/01 13:26:27;;;;;;;4.40;4.00;;;;;;;;;;5054467;28;20484;-67
2022/06/01 13:28:55;;;;;;;4.63;4.07;;;;;;;;;;5054375;28;20426;-68
2022/06/01 13:31:23;;;;;;;6.10;5.00;;;;;;;;;;5054712;28;20447;-67
2022/06/01 13:33:50;;;;;;;6.53;5.30;;;;;;;;;;5054530;28;20481;-67
2022/06/01 13:36:27;;;;;;;5.23;4.83;;;;;;;;;;5054368;28;20558;-66
2022/06/01 13:39:01;;;;;;;5.10;4.70;;;;;;;;;;5054424;28;20458;-67
2022/06/01 13:41:34;;;;;;;6.50;5.00;;;;;;;;;;5054080;28;20471;-68
2022/06/01 13:44:09;;;;;;;4.57;4.27;;;;;;;;;;5053950;28;20484;-67
2022/06/01 13:46:40;;;;;;;4.10;3.80;;;;;;;;;;5054941;28;20769;-67
2022/06/01 13:49:11;;;;;;;4.57;4.20;;;;;;;;;;5053934;28;20431;-67
2022/06/01 13:51:39;;;;;;;4.83;4.40;;;;;;;;;;5054253;28;20921;-67
2022/06/01 13:54:19;;;;;;;4.57;4.17;;;;;;;;;;5054260;28;20954;-67
2022/06/01 13:56:47;;;;;;;4.23;3.83;;;;;;;;;;5053938;28;20441;-67
2022/06/01 13:59:30;;;;;;;4.70;4.27;;;;;;;;;;5053799;28;20448;-67
2022/06/01 14:01:59;;;;;;;5.00;4.50;;;;;;;;;;5054347;28;20824;-68
2022/06/01 14:04:31;;;;;;;4.93;4.13;;;;;;;;;;5053820;28;20793;-67
2022/06/01 14:07:03;;;;;;;4.60;4.20;;;;;;;;;;5054084;28;20792;-68
2022/06/01 14:09:32;;;;;;;5.37;4.90;;;;;;;;;;5053932;28;20453;-68
2022/06/01 14:12:01;;;;;;;5.10;4.13;;;;;;;;;;5053602;28;20481;-68
2022/06/01 14:14:30;;;;;;;4.40;3.90;;;;;;;;;;5053484;28;20444;-68
2022/06/01 14:16:58;;;;;;;4.13;3.83;;;;;;;;;;5053551;28;20932;-68
2022/06/01 14:19:26;;;;;;;5.80;5.30;;;;;;;;;;5053702;28;20456;-68
2022/06/01 14:21:53;;;;;;;5.87;5.37;;;;;;;;;;5053723;28;20606;-69
2022/06/01 14:24:20;;;;;;;6.70;6.20;;;;;;;;;;5053686;28;20446;-69
2022/06/01 14:29:34;;;;;;;5.90;5.40;;;;;;;;;;5052683;28;20406;-69
2022/06/01 14:32:01;;;;;;;6.60;6.10;;;;;;;;;;5053131;28;20934;-67
2022/06/01 14:34:29;;;;;;;6.20;5.67;;;;;;;;;;5053188;28;20446;-68
2022/06/01 14:36:58;;;;;;;6.17;5.57;;;;;;;;;;5053444;28;20962;-68
2022/06/01 14:39:25;;;;;;;6.70;6.20;;;;;;;;;;5053610;28;20512;-68
2022/06/01 14:41:52;;;;;;;7.73;7.17;;;;;;;;;;5053721;28;20560;-68
2022/06/01 14:44:20;;;;;;;6.57;6.07;;;;;;;;;;5053377;28;20521;-68
2022/06/01 14:46:50;;;;;;;6.23;5.73;;;;;;;;;;5053704;28;20434;-68
2022/06/01 14:49:18;;;;;;;6.23;5.73;;;;;;;;;;5053105;28;20458;-68
2022/06/01 14:51:51;;;;;;;5.97;5.53;;;;;;;;;;5053328;28;20479;-68
2022/06/01 14:54:19;;;;;;;5.97;5.47;;;;;;;;;;5053137;28;20447;-68
2022/06/01 14:56:46;;;;;;;7.87;5.80;;;;;;;;;;5052954;28;20916;-68
2022/06/01 14:59:13;;;;;;;7.30;6.30;;;;;;;;;;5053301;28;20448;-68
2022/06/01 15:01:43;;;;;;;6.60;6.10;;;;;;;;;;5053129;28;20478;-68
2022/06/01 15:04:14;;;;;;;5.23;4.77;;;;;;;;;;5053022;28;20443;-68
2022/06/01 15:06:43;;;;;;;5.47;5.07;;;;;;;;;;5053435;28;20872;-68
2022/06/01 15:09:11;;;;;;;5.57;5.03;;;;;;;;;;5052987;28;20525;-68
2022/06/01 15:11:39;;;;;;;10.50;9.67;;;;;;;;;;5052748;28;20529;-68
2022/06/01 15:14:06;;;;;;;5.30;4.80;;;;;;;;;;5052713;28;20452;-68
2022/06/01 15:16:33;;;;;;;5.10;4.57;;;;;;;;;;5052696;28;20438;-69
2022/06/01 15:19:01;;;;;;;4.50;4.20;;;;;;;;;;5052883;28;20445;-68
2022/06/01 15:21:30;;;;;;;4.33;3.90;;;;;;;;;;5052842;28;20482;-68